Time;durP1;ratioP1;P1;durP2;ratioP2;P2;SDS_P1;SDS_P2;PMS_P1;PMS_P2;Temp;Humidity;BMP_temperature;BMP_pressure;BME280_temperature;BME280_humidity;BME280_pressure;Samples;Min_cycle;Max_cycle;Signal;HPM_P1;HPM_P2
2021/10/12 00:01:45;;;;;;;4.05;1.30;;;;;;;9.28;100.00;101167.38;5252813;28;20140;-81
2021/10/12 00:04:15;;;;;;;3.78;1.02;;;;;;;9.22;100.00;101153.59;5251789;28;20030;-81
2021/10/12 00:06:46;;;;;;;8.70;1.55;;;;;;;9.16;100.00;101156.34;5252476;28;20637;-81
2021/10/12 00:09:16;;;;;;;2.92;0.73;;;;;;;9.18;100.00;101150.19;5252598;28;20020;-81
2021/10/12 00:11:46;;;;;;;4.20;1.00;;;;;;;9.11;100.00;101155.59;5248090;28;20063;-81
2021/10/12 00:14:17;;;;;;;3.70;1.05;;;;;;;9.11;100.00;101145.16;5269272;28;20030;-81
2021/10/12 00:16:47;;;;;;;4.50;0.68;;;;;;;9.17;100.00;101151.06;5269435;28;20023;-81
2021/10/12 00:19:18;;;;;;;2.85;0.90;;;;;;;9.05;100.00;101147.88;5251367;28;20035;-81
2021/10/12 00:21:48;;;;;;;5.70;1.15;;;;;;;8.99;100.00;101150.59;5268667;28;20559;-81
2021/10/12 00:24:18;;;;;;;4.65;1.00;;;;;;;8.98;100.00;101150.63;5250719;28;20043;-81
2021/10/12 00:26:48;;;;;;;4.82;1.02;;;;;;;8.96;100.00;101152.41;5271999;28;20178;-81
2021/10/12 00:29:19;;;;;;;5.55;0.98;;;;;;;9.02;100.00;101147.06;5271606;28;20184;-81
2021/10/12 00:31:49;;;;;;;5.88;1.70;;;;;;;9.00;100.00;101136.69;5251387;28;20032;-81
2021/10/12 00:34:19;;;;;;;5.97;1.05;;;;;;;9.01;100.00;101141.00;5250252;28;20016;-82
2021/10/12 00:36:50;;;;;;;3.65;1.08;;;;;;;8.97;100.00;101135.88;5250643;28;20031;-82
2021/10/12 00:39:21;;;;;;;3.03;0.90;;;;;;;8.99;100.00;101131.47;5254341;28;20024;-82
2021/10/12 00:41:53;;;;;;;2.83;0.90;;;;;;;8.98;100.00;101122.81;5254475;28;20288;-82
2021/10/12 00:44:24;;;;;;;7.82;1.27;;;;;;;8.99;100.00;101121.06;5253886;28;20046;-83
2021/10/12 00:46:55;;;;;;;5.70;1.58;;;;;;;8.99;100.00;101127.13;5254389;28;20028;-83
2021/10/12 00:49:25;;;;;;;4.78;1.55;;;;;;;9.12;100.00;101120.78;5271324;28;20028;-82
2021/10/12 00:51:56;;;;;;;8.20;1.10;;;;;;;9.19;100.00;101117.16;5271841;28;20024;-82
2021/10/12 00:54:26;;;;;;;5.82;1.00;;;;;;;9.14;100.00;101113.78;5242242;28;20025;-82
2021/10/12 00:56:56;;;;;;;14.55;1.45;;;;;;;9.22;100.00;101114.47;5254144;28;20054;-83
2021/10/12 00:59:27;;;;;;;2.35;0.90;;;;;;;9.16;100.00;101106.78;5254263;28;20039;-83
2021/10/12 01:01:57;;;;;;;4.57;0.95;;;;;;;9.21;100.00;101111.03;5255074;28;20054;-83
2021/10/12 01:04:27;;;;;;;5.00;1.02;;;;;;;9.27;100.00;101095.22;5272464;28;20024;-83
2021/10/12 01:06:58;;;;;;;6.03;1.13;;;;;;;9.29;100.00;101100.44;5253309;28;20455;-81
2021/10/12 01:09:28;;;;;;;4.38;1.20;;;;;;;9.24;100.00;101091.81;5254453;28;20055;-82
2021/10/12 01:11:59;;;;;;;3.55;0.90;;;;;;;9.23;100.00;101092.72;5272248;28;20395;-81
2021/10/12 01:14:29;;;;;;;9.70;1.30;;;;;;;9.33;100.00;101078.59;5253273;28;20046;-82
2021/10/12 01:16:59;;;;;;;4.15;1.00;;;;;;;9.34;100.00;101086.38;5253726;28;20027;-82
2021/10/12 01:19:30;;;;;;;5.45;1.17;;;;;;;9.42;100.00;101071.41;5253236;28;20039;-81
2021/10/12 01:22:00;;;;;;;4.55;0.90;;;;;;;9.39;100.00;101073.22;5253921;28;20032;-82
2021/10/12 01:24:31;;;;;;;7.78;1.20;;;;;;;9.36;100.00;101068.09;5252092;28;20028;-82
2021/10/12 01:27:01;;;;;;;3.70;0.80;;;;;;;9.37;100.00;101056.75;5257120;28;20474;-82
2021/10/12 01:29:32;;;;;;;7.22;1.33;;;;;;;9.28;100.00;101049.16;5256346;28;20020;-83
2021/10/12 01:32:03;;;;;;;7.82;1.15;;;;;;;9.26;100.00;101062.22;5253847;28;20214;-82
2021/10/12 01:34:33;;;;;;;5.00;1.38;;;;;;;9.28;100.00;101062.19;5252973;28;20039;-82
2021/10/12 01:37:03;;;;;;;4.90;1.08;;;;;;;9.27;100.00;101056.13;5272671;28;20594;-82
2021/10/12 01:39:33;;;;;;;2.40;0.98;;;;;;;9.23;100.00;101059.69;5253336;28;20024;-82
2021/10/12 01:42:05;;;;;;;8.50;1.60;;;;;;;9.31;100.00;101049.09;5272436;28;20016;-82
2021/10/12 01:44:35;;;;;;;5.93;1.20;;;;;;;9.34;100.00;101046.41;5253148;28;20483;-82
2021/10/12 01:47:05;;;;;;;6.32;1.20;;;;;;;9.34;100.00;101039.41;5253384;28;20177;-81
2021/10/12 01:49:36;;;;;;;6.63;1.15;;;;;;;9.20;100.00;101045.84;5254816;28;20391;-81
2021/10/12 01:52:10;;;;;;;5.60;1.13;;;;;;;9.15;100.00;101032.06;5252803;28;20017;-82
2021/10/12 01:54:41;;;;;;;2.47;1.00;;;;;;;9.18;100.00;101032.00;5270377;28;20484;-81
2021/10/12 01:57:11;;;;;;;3.38;1.10;;;;;;;9.11;100.00;101030.44;5274533;28;20273;-82
2021/10/12 01:59:41;;;;;;;2.97;0.90;;;;;;;9.03;100.00;101019.28;5272454;28;20612;-81
2021/10/12 02:02:12;;;;;;;2.85;0.80;;;;;;;9.02;100.00;101014.09;5249108;28;20026;-81
2021/10/12 02:04:42;;;;;;;5.53;1.15;;;;;;;9.14;100.00;101014.72;5253600;28;20036;-80
2021/10/12 02:07:12;;;;;;;3.83;1.10;;;;;;;9.11;100.00;101017.38;5272297;28;20507;-81
2021/10/12 02:09:43;;;;;;;5.28;1.10;;;;;;;9.03;100.00;101014.09;5251319;28;20031;-81
2021/10/12 02:12:13;;;;;;;6.10;1.25;;;;;;;9.08;100.00;101011.38;5255829;28;20050;-82
2021/10/12 02:14:44;;;;;;;4.38;1.17;;;;;;;9.10;100.00;101005.22;5252906;28;20474;-81
2021/10/12 02:17:14;;;;;;;5.57;1.23;;;;;;;9.13;100.00;101007.78;5271255;28;20096;-81
2021/10/12 02:19:45;;;;;;;6.30;1.30;;;;;;;9.10;100.00;101005.22;5252516;28;20067;-81
2021/10/12 02:22:15;;;;;;;3.53;1.10;;;;;;;9.14;100.00;101007.72;5252936;28;20039;-81
2021/10/12 02:24:45;;;;;;;4.95;1.20;;;;;;;9.14;100.00;100999.91;5251928;28;20023;-81
2021/10/12 02:27:16;;;;;;;4.38;1.17;;;;;;;9.12;100.00;100999.97;5252674;28;20510;-82
2021/10/12 02:29:46;;;;;;;6.63;1.40;;;;;;;9.12;100.00;100998.25;5252373;28;20121;-81
2021/10/12 02:32:18;;;;;;;2.13;1.05;;;;;;;9.13;100.00;100998.19;5270114;28;20046;-81
2021/10/12 02:34:48;;;;;;;5.78;1.08;;;;;;;9.15;100.00;100985.13;5251535;28;20111;-81
2021/10/12 02:37:19;;;;;;;3.45;0.93;;;;;;;9.17;100.00;100984.19;5272032;28;20039;-81
2021/10/12 02:39:50;;;;;;;6.32;1.00;;;;;;;9.12;100.00;100987.81;5273026;28;20665;-81
2021/10/12 02:42:20;;;;;;;3.75;1.10;;;;;;;9.04;100.00;100981.06;5270907;28;20035;-81
2021/10/12 02:44:50;;;;;;;4.47;1.05;;;;;;;9.10;100.00;100984.34;5269517;28;20055;-81
2021/10/12 02:47:20;;;;;;;5.55;1.00;;;;;;;9.16;100.00;100982.47;5250542;28;20046;-81
2021/10/12 02:49:51;;;;;;;4.18;0.98;;;;;;;9.24;100.00;100974.47;5275358;28;20103;-81
2021/10/12 02:52:21;;;;;;;3.53;0.93;;;;;;;9.39;100.00;100964.53;5270394;28;20024;-82
2021/10/12 02:54:51;;;;;;;4.68;1.00;;;;;;;9.30;100.00;100961.31;5251008;28;20275;-81
2021/10/12 02:57:22;;;;;;;3.53;1.13;;;;;;;9.32;100.00;100964.72;5251555;28;20032;-81
2021/10/12 02:59:52;;;;;;;7.03;1.20;;;;;;;9.38;100.00;100959.34;5269773;28;20038;-81
2021/10/12 03:02:23;;;;;;;4.50;0.85;;;;;;;9.37;100.00;100955.91;5251085;28;20020;-81
2021/10/12 03:04:53;;;;;;;4.15;1.25;;;;;;;9.39;100.00;100943.69;5251731;28;20032;-82
2021/10/12 03:07:23;;;;;;;5.97;1.30;;;;;;;9.51;100.00;100953.78;5270437;28;20028;-82
2021/10/12 03:09:53;;;;;;;4.28;1.15;;;;;;;9.52;100.00;100947.66;5252538;28;20035;-81
2021/10/12 03:12:24;;;;;;;6.35;1.52;;;;;;;9.58;100.00;100944.03;5252299;28;20028;-81
2021/10/12 03:14:54;;;;;;;5.50;1.15;;;;;;;9.56;100.00;100945.84;5251501;28;20659;-82
2021/10/12 03:17:25;;;;;;;4.57;1.02;;;;;;;9.74;100.00;100953.19;5251769;28;20118;-81
2021/10/12 03:19:55;;;;;;;4.90;0.88;;;;;;;9.72;100.00;100941.94;5254256;28;20036;-83
2021/10/12 03:22:26;;;;;;;8.80;1.00;;;;;;;9.68;100.00;100932.50;5268792;28;20530;-81
2021/10/12 03:24:56;;;;;;;7.60;1.40;;;;;;;9.70;100.00;100923.75;5251171;28;20103;-83
2021/10/12 03:27:27;;;;;;;9.10;1.38;;;;;;;9.65;100.00;100916.91;5250519;28;20020;-82
2021/10/12 03:29:57;;;;;;;6.45;1.23;;;;;;;9.65;100.00;100909.94;5251607;28;20039;-82
2021/10/12 03:32:27;;;;;;;5.50;1.13;;;;;;;9.76;100.00;100912.25;5250584;28;20020;-82
2021/10/12 03:34:58;;;;;;;3.40;1.50;;;;;;;9.64;100.00;100903.00;5250440;28;20057;-82
2021/10/12 03:37:28;;;;;;;3.70;1.30;;;;;;;9.65;100.00;100904.72;5252382;28;20032;-82
2021/10/12 03:39:58;;;;;;;3.90;1.52;;;;;;;9.66;100.00;100898.59;5250077;28;20031;-82
2021/10/12 03:42:28;;;;;;;5.97;1.65;;;;;;;9.66;100.00;100884.69;5251374;28;20036;-82
2021/10/12 03:44:59;;;;;;;5.22;1.20;;;;;;;9.65;100.00;100883.00;5251115;28;20039;-82
2021/10/12 03:47:29;;;;;;;4.22;1.63;;;;;;;9.68;100.00;100881.13;5251578;28;20028;-82
2021/10/12 03:49:59;;;;;;;3.75;1.48;;;;;;;9.73;100.00;100870.56;5253582;28;20091;-81
2021/10/12 03:52:29;;;;;;;7.05;1.60;;;;;;;9.81;100.00;100876.47;5250569;28;20032;-81
2021/10/12 03:55:00;;;;;;;5.93;1.70;;;;;;;9.69;100.00;100872.41;5250964;28;20055;-82
2021/10/12 03:57:30;;;;;;;4.50;1.67;;;;;;;9.63;100.00;100872.59;5251036;28;20034;-82
2021/10/12 04:00:00;;;;;;;4.90;1.50;;;;;;;9.62;100.00;100862.22;5268488;28;20031;-82
2021/10/12 04:02:31;;;;;;;3.92;1.85;;;;;;;9.70;100.00;100855.00;5248960;28;20256;-82
2021/10/12 04:05:01;;;;;;;5.25;1.85;;;;;;;9.59;100.00;100862.25;5248529;28;20055;-80
2021/10/12 04:07:32;;;;;;;8.45;1.92;;;;;;;9.65;100.00;100856.91;5270110;28;20028;-81
2021/10/12 04:10:03;;;;;;;6.20;1.77;;;;;;;9.67;100.00;100850.72;5249123;28;20207;-82
2021/10/12 04:12:34;;;;;;;7.50;1.80;;;;;;;9.71;100.00;100846.28;5254375;28;20028;-82
2021/10/12 04:15:04;;;;;;;3.13;1.50;;;;;;;9.69;100.00;100840.25;5266041;28;20080;-81
2021/10/12 04:17:35;;;;;;;3.70;1.55;;;;;;;9.68;100.00;100835.94;5266681;28;20020;-82
2021/10/12 04:20:06;;;;;;;3.97;1.55;;;;;;;9.73;100.00;100824.47;5266597;28;20083;-82
2021/10/12 04:22:36;;;;;;;6.03;1.95;;;;;;;9.71;100.00;100812.34;5266634;28;20026;-82
2021/10/12 04:25:07;;;;;;;4.22;1.70;;;;;;;9.75;100.00;100811.34;5248290;28;20028;-81
2021/10/12 04:27:37;;;;;;;4.53;1.60;;;;;;;9.74;100.00;100820.09;5269846;28;20082;-81
2021/10/12 04:30:08;;;;;;;2.45;1.50;;;;;;;9.96;100.00;100816.00;5268414;28;20415;-82
2021/10/12 04:32:38;;;;;;;7.03;1.50;;;;;;;9.89;100.00;100811.81;5268427;28;20028;-82
2021/10/12 04:35:09;;;;;;;3.92;1.33;;;;;;;9.75;100.00;100811.34;5266785;28;20024;-82
2021/10/12 04:37:39;;;;;;;3.25;1.73;;;;;;;9.83;100.00;100804.19;5252496;28;20388;-82
2021/10/12 04:40:10;;;;;;;4.55;1.67;;;;;;;9.84;100.00;100809.34;5253616;28;20038;-82
2021/10/12 04:42:40;;;;;;;5.00;1.90;;;;;;;9.88;100.00;100805.78;5252405;28;20024;-82
2021/10/12 04:45:10;;;;;;;6.32;1.70;;;;;;;9.94;100.00;100809.94;5258271;28;20260;-81
2021/10/12 04:47:41;;;;;;;5.75;2.20;;;;;;;9.94;100.00;100807.31;5277916;28;20024;-81
2021/10/12 04:50:11;;;;;;;4.03;2.40;;;;;;;9.88;100.00;100804.91;5253374;28;20058;-81
2021/10/12 04:52:43;;;;;;;5.65;1.98;;;;;;;9.89;100.00;100794.44;5275444;28;20023;-81
2021/10/12 04:55:13;;;;;;;6.82;2.10;;;;;;;9.74;100.00;100807.03;5255552;28;20023;-81
2021/10/12 04:57:44;;;;;;;6.10;1.98;;;;;;;9.76;100.00;100797.41;5253399;28;20084;-81
2021/10/12 05:00:14;;;;;;;4.72;2.17;;;;;;;9.68;100.00;100794.19;5246107;28;20464;-81
2021/10/12 05:02:45;;;;;;;7.03;2.47;;;;;;;9.89;100.00;100793.56;5268216;28;20146;-81
2021/10/12 05:05:15;;;;;;;4.55;1.92;;;;;;;9.84;100.00;100795.44;5268220;28;20391;-81
2021/10/12 05:07:45;;;;;;;4.40;2.05;;;;;;;9.81;100.00;100792.94;5250852;28;20028;-81
2021/10/12 05:10:15;;;;;;;3.97;2.10;;;;;;;9.84;100.00;100790.22;5250486;28;20062;-81
2021/10/12 05:12:46;;;;;;;5.80;2.30;;;;;;;9.87;100.00;100790.13;5249802;28;20060;-81
2021/10/12 05:15:25;;;;;;;6.80;2.25;;;;;;;9.85;100.00;100791.94;5266433;28;20024;-81
2021/10/12 05:17:56;;;;;;;4.72;2.35;;;;;;;9.83;100.00;100797.19;5250208;28;20032;-81
2021/10/12 05:20:27;;;;;;;7.70;2.72;;;;;;;9.76;100.00;100784.38;5250395;28;20016;-81
2021/10/12 05:22:57;;;;;;;4.78;2.50;;;;;;;9.82;100.00;100790.25;5250313;28;20266;-81
2021/10/12 05:25:27;;;;;;;6.13;2.50;;;;;;;9.93;100.00;100780.38;5254093;28;20028;-81
2021/10/12 05:27:58;;;;;;;8.98;2.90;;;;;;;9.81;100.00;100774.66;5256042;28;20128;-81
2021/10/12 05:30:28;;;;;;;6.28;2.80;;;;;;;9.85;100.00;100777.13;5253026;28;20023;-81
2021/10/12 05:32:58;;;;;;;7.55;2.88;;;;;;;9.92;100.00;100783.00;5252396;28;20094;-81
2021/10/12 05:35:29;;;;;;;7.55;3.17;;;;;;;9.84;100.00;100785.84;5250732;28;20053;-82
2021/10/12 05:37:59;;;;;;;4.85;2.88;;;;;;;9.79;100.00;100774.69;5254924;28;20403;-81
2021/10/12 05:40:29;;;;;;;7.25;2.75;;;;;;;9.82;100.00;100772.00;5277443;28;20099;-81
2021/10/12 05:43:00;;;;;;;8.48;3.17;;;;;;;9.80;100.00;100771.19;5271215;28;20111;-82
2021/10/12 05:45:30;;;;;;;4.72;2.50;;;;;;;9.88;100.00;100765.75;5256245;28;20028;-81
2021/10/12 05:48:01;;;;;;;5.43;2.70;;;;;;;9.87;100.00;100769.25;5271416;28;20494;-81
2021/10/12 05:50:31;;;;;;;6.30;3.17;;;;;;;9.90;100.00;100761.31;5253823;28;20033;-82
2021/10/12 05:56:11;;;;;;;7.28;3.60;;;;;;;9.92;100.00;100756.91;5235224;28;20106;-81
2021/10/12 05:58:43;;;;;;;7.07;2.92;;;;;;;9.91;100.00;100756.06;5257031;28;20087;-82
2021/10/12 06:01:13;;;;;;;6.65;3.15;;;;;;;9.86;100.00;100762.31;5248822;28;20059;-82
2021/10/12 06:03:44;;;;;;;6.50;2.78;;;;;;;9.89;100.00;100751.78;5244245;28;20032;-82
2021/10/12 06:06:14;;;;;;;7.28;3.13;;;;;;;9.97;100.00;100752.44;5273955;28;20024;-82
2021/10/12 06:08:45;;;;;;;5.13;3.30;;;;;;;9.99;100.00;100751.47;5255353;28;20028;-82
2021/10/12 06:11:15;;;;;;;7.68;3.75;;;;;;;9.98;100.00;100757.59;5251781;28;20115;-82
2021/10/12 06:13:47;;;;;;;8.77;2.97;;;;;;;10.00;100.00;100763.63;5253025;28;20479;-81
2021/10/12 06:16:18;;;;;;;5.90;2.90;;;;;;;9.90;100.00;100756.97;5273204;28;20321;-82
2021/10/12 06:18:48;;;;;;;8.70;2.92;;;;;;;9.95;100.00;100752.47;5252243;28;20071;-81
2021/10/12 06:21:19;;;;;;;5.68;2.85;;;;;;;9.99;100.00;100751.47;5252856;28;20081;-82
2021/10/12 06:23:49;;;;;;;7.07;3.30;;;;;;;10.00;100.00;100753.16;5252780;28;20050;-82
2021/10/12 06:26:19;;;;;;;9.63;3.47;;;;;;;10.03;100.00;100760.94;5269973;28;20143;-82
2021/10/12 06:28:50;;;;;;;5.47;2.85;;;;;;;10.06;100.00;100762.59;5273883;28;20028;-81
2021/10/12 06:31:20;;;;;;;7.25;3.10;;;;;;;9.97;100.00;100760.25;5252908;28;20102;-82
2021/10/12 06:33:50;;;;;;;4.97;2.85;;;;;;;9.99;100.00;100767.13;5252449;23;20055;-81
2021/10/12 06:36:20;;;;;;;7.63;2.92;;;;;;;10.04;100.00;100761.81;5254413;28;20017;-82
2021/10/12 06:38:51;;;;;;;5.28;2.70;;;;;;;10.05;100.00;100758.28;5254027;28;20052;-83
2021/10/12 06:41:21;;;;;;;8.50;3.10;;;;;;;9.96;100.00;100769.84;5250786;28;20031;-82
2021/10/12 06:43:51;;;;;;;8.10;2.85;;;;;;;9.98;100.00;100767.19;5242099;28;20735;-82
2021/10/12 06:46:21;;;;;;;6.43;2.72;;;;;;;9.94;100.00;100765.53;5224324;28;20527;-81
2021/10/12 06:48:52;;;;;;;5.07;2.90;;;;;;;9.97;100.00;100762.88;5220559;28;20029;-82
2021/10/12 06:51:22;;;;;;;5.10;2.70;;;;;;;10.04;100.00;100764.41;5230370;28;20078;-81
2021/10/12 06:53:52;;;;;;;3.83;2.05;;;;;;;10.12;100.00;100765.91;5219900;28;20376;-81
2021/10/12 06:56:23;;;;;;;5.55;2.22;;;;;;;10.15;100.00;100770.19;5221008;28;20028;-80
2021/10/12 06:58:53;;;;;;;4.32;2.42;;;;;;;10.18;100.00;100776.13;5216671;28;20028;-81
2021/10/12 07:01:23;;;;;;;4.78;2.10;;;;;;;10.29;100.00;100773.19;5221215;28;20020;-81
2021/10/12 07:03:54;;;;;;;4.03;2.28;;;;;;;10.29;100.00;100775.81;5239444;28;20060;-82
2021/10/12 07:06:24;;;;;;;5.20;2.40;;;;;;;10.36;100.00;100774.72;5226815;28;20025;-82
2021/10/12 07:08:54;;;;;;;5.05;2.42;;;;;;;10.32;100.00;100778.34;5220175;28;20079;-82
2021/10/12 07:11:24;;;;;;;4.13;2.40;;;;;;;10.32;100.00;100780.97;5222377;28;20025;-80
2021/10/12 07:13:55;;;;;;;6.47;2.50;;;;;;;10.31;100.00;100787.09;5219594;28;20028;-81
2021/10/12 07:16:25;;;;;;;2.88;1.65;;;;;;;10.23;100.00;100776.88;5219446;28;20480;-81
2021/10/12 07:18:56;;;;;;;4.25;1.80;;;;;;;10.29;100.00;100783.63;5219690;28;20115;-82
2021/10/12 07:21:26;;;;;;;2.78;1.55;;;;;;;10.23;100.00;100783.84;5219320;28;20059;-82
2021/10/12 07:23:56;;;;;;;2.88;1.13;;;;;;;10.24;100.00;100778.59;5229560;28;20322;-82
2021/10/12 07:26:27;;;;;;;3.42;1.30;;;;;;;10.13;100.00;100767.59;5228393;28;20036;-82
2021/10/12 07:28:59;;;;;;;2.53;0.98;;;;;;;10.27;100.00;100764.56;5212132;28;20021;-80
2021/10/12 07:31:29;;;;;;;2.38;1.20;;;;;;;10.12;100.00;100759.81;5219818;28;20078;-81
2021/10/12 07:33:59;;;;;;;1.48;0.90;;;;;;;10.16;100.00;100746.59;5218225;28;20029;-80
2021/10/12 07:36:30;;;;;;;1.05;0.73;;;;;;;10.08;100.00;100756.44;5213444;28;20035;-80
2021/10/12 07:39:00;;;;;;;1.80;0.73;;;;;;;10.12;100.00;100759.81;5214769;28;20510;-80
2021/10/12 07:41:31;;;;;;;1.00;0.65;;;;;;;10.14;100.00;100758.03;5219236;28;20147;-81
2021/10/12 07:44:02;;;;;;;2.03;0.85;;;;;;;10.23;100.00;100757.72;5218769;28;20537;-81
2021/10/12 07:46:34;;;;;;;3.03;0.60;;;;;;;10.09;100.00;100752.06;5218855;28;20053;-81
2021/10/12 07:49:04;;;;;;;1.88;0.75;;;;;;;10.13;100.00;100751.09;5218584;28;20083;-82
2021/10/12 07:51:34;;;;;;;1.05;0.50;;;;;;;10.30;100.00;100759.22;5212848;28;20017;-81
2021/10/12 07:54:10;;;;;;;1.77;0.90;;;;;;;10.16;100.00;100753.59;5207368;28;20024;-80
2021/10/12 07:56:40;;;;;;;;;;;;;;;10.15;100.00;100754.50;5225110;28;20017;-82
2021/10/12 07:59:12;;;;;;;3.00;1.00;;;;;;;10.19;100.00;100753.50;5218107;28;19919;-81
2021/10/12 08:01:42;;;;;;;1.73;0.77;;;;;;;10.15;100.00;100744.06;5204312;28;20029;-82
2021/10/12 08:04:12;;;;;;;1.45;0.55;;;;;;;10.29;100.00;100737.50;5215340;28;20230;-80
2021/10/12 08:06:43;;;;;;;1.75;0.70;;;;;;;10.35;100.00;100742.50;5213062;28;20055;-80
2021/10/12 08:09:13;;;;;;;7.10;2.47;;;;;;;10.31;100.00;100734.84;5217502;28;20162;-79
2021/10/12 08:11:44;;;;;;;6.78;1.98;;;;;;;10.46;100.00;100735.19;5230090;28;20443;-81
2021/10/12 08:14:18;;;;;;;3.88;1.08;;;;;;;10.52;100.00;100728.91;5214566;28;20363;-81
2021/10/12 08:16:48;;;;;;;3.08;0.80;;;;;;;10.43;100.00;100726.59;5211772;28;20025;-82
2021/10/12 08:19:19;;;;;;;2.97;1.20;;;;;;;10.70;100.00;100718.69;5226671;28;20048;-81
2021/10/12 08:21:49;;;;;;;2.35;0.93;;;;;;;10.74;100.00;100735.13;5211840;28;20399;-80
2021/10/12 08:24:20;;;;;;;2.55;1.40;;;;;;;10.88;100.00;100738.13;5224455;28;20031;-80
2021/10/12 08:26:50;;;;;;;3.30;1.17;;;;;;;10.90;100.00;100736.31;5224536;28;20025;-82
2021/10/12 08:29:20;;;;;;;2.60;1.15;;;;;;;10.83;100.00;100724.38;5214445;28;20048;-81
2021/10/12 08:31:51;;;;;;;4.65;1.75;;;;;;;11.09;100.00;100728.63;5225894;28;20029;-81
2021/10/12 08:34:21;;;;;;;6.50;3.05;;;;;;;11.37;100.00;100718.91;5220018;28;20053;-82
2021/10/12 08:36:51;;;;;;;5.95;3.45;;;;;;;11.42;100.00;100727.44;5216276;28;20040;-83
2021/10/12 08:39:29;;;;;;;5.28;2.72;;;;;;;11.48;100.00;100727.19;5234714;28;20028;-83
2021/10/12 08:42:09;;;;;;;5.03;2.85;;;;;;;11.59;100.00;100735.53;5219733;28;20021;-83
2021/10/12 08:44:52;;;;;;;4.68;1.50;;;;;;;11.31;100.00;100740.03;5216580;28;20025;-82
2021/10/12 08:47:24;;;;;;;5.95;3.22;;;;;;;11.66;100.00;100720.47;5227942;28;20035;-81
2021/10/12 08:49:55;;;;;;;4.32;1.88;;;;;;;11.45;100.00;100724.69;5211063;28;20028;-81
2021/10/12 08:52:25;;;;;;;2.78;1.08;;;;;;;11.55;100.00;100731.31;5217530;28;20017;-82
2021/10/12 08:54:56;;;;;;;3.95;1.70;;;;;;;11.39;100.00;100721.44;5216663;28;20495;-82
2021/10/12 08:57:35;;;;;;;1.65;0.80;;;;;;;11.10;100.00;100725.09;5215815;28;20033;-82
2021/10/12 09:00:15;;;;;;;2.28;0.88;;;;;;;11.41;100.00;100727.50;5219545;28;20280;-82
2021/10/12 09:05:57;;;;;;;1.17;0.68;;;;;;;11.23;100.00;100729.00;5226690;28;20071;-82
2021/10/12 09:08:32;;;;;;;1.63;0.88;;;;;;;11.34;100.00;100716.41;5211217;28;20037;-82
2021/10/12 09:11:04;;;;;;;4.32;2.45;;;;;;;11.40;100.00;100718.78;5209637;28;20510;-82
2021/10/12 09:13:47;;;;;;;2.17;1.05;;;;;;;11.29;100.00;100718.31;5219622;28;20041;-82
2021/10/12 09:16:18;;;;;;;2.25;1.30;;;;;;;11.41;100.00;100715.25;5211729;28;20102;-82
2021/10/12 09:18:57;;;;;;;2.70;1.35;;;;;;;11.68;100.00;100711.66;5231172;28;20029;-80
2021/10/12 09:21:29;;;;;;;5.72;2.70;;;;;;;11.98;100.00;100713.06;5222039;28;20028;-82
2021/10/12 09:24:04;;;;;;;4.60;1.50;;;;;;;11.98;100.00;100715.69;5216292;28;20043;-82
2021/10/12 09:26:36;;;;;;;3.05;1.17;;;;;;;12.16;100.00;100707.09;5219348;28;20028;-82
2021/10/12 09:29:12;;;;;;;4.38;1.60;;;;;;;11.97;100.00;100714.00;5217491;28;20426;-81
2021/10/12 09:31:45;;;;;;;5.22;2.20;;;;;;;11.99;100.00;100709.53;5219045;28;20036;-82
2021/10/12 09:34:18;;;;;;;21.60;11.30;;;;;;;12.33;100.00;100704.66;5212050;28;20067;-81
2021/10/12 09:36:49;;;;;;;8.50;3.95;;;;;;;12.16;100.00;100707.09;5212400;28;20067;-81
2021/10/12 09:39:22;;;;;;;3.05;1.80;;;;;;;12.27;100.00;100704.09;5214727;28;20025;-82
2021/10/12 09:41:58;;;;;;;6.28;3.83;;;;;;;12.14;100.00;100706.31;5225117;28;20106;-82
2021/10/12 09:44:28;;;;;;;3.33;1.35;;;;;;;12.24;100.00;100705.06;5219296;28;20088;-82
2021/10/12 09:47:13;;;;;;;2.83;0.90;;;;;;;11.97;100.00;100711.38;5222966;28;20499;-82
2021/10/12 09:49:45;;;;;;;1.90;0.95;;;;;;;12.29;100.00;100702.25;5219948;28;20197;-82
2021/10/12 09:52:21;;;;;;;5.57;1.70;;;;;;;12.49;100.00;100710.16;5221974;28;20048;-81
2021/10/12 09:54:57;;;;;;;7.07;1.90;;;;;;;12.65;100.00;100695.50;5231593;28;20035;-82
2021/10/12 09:57:30;;;;;;;12.60;6.13;;;;;;;12.70;100.00;100699.63;5231906;28;20029;-81
2021/10/12 10:00:01;;;;;;;7.25;3.28;;;;;;;12.50;100.00;100704.81;5222576;28;20187;-82
2021/10/12 10:02:34;;;;;;;8.13;3.80;;;;;;;12.55;100.00;100697.66;5234241;28;20025;-82
2021/10/12 10:05:05;;;;;;;4.00;1.65;;;;;;;12.37;100.00;100698.41;5220841;28;20029;-82
2021/10/12 10:07:45;;;;;;;3.55;1.10;;;;;;;12.87;100.00;100696.28;5219381;28;20365;-82
2021/10/12 10:10:16;;;;;;;2.67;0.98;;;;;;;12.85;100.00;100692.88;5230115;28;20052;-82
2021/10/12 10:12:46;;;;;;;3.78;1.00;;;;;;;12.90;100.00;100700.47;5226742;28;20428;-82
2021/10/12 10:15:16;;;;;;;4.05;1.33;;;;;;;12.71;100.00;100696.09;5224440;28;20025;-81
2021/10/12 10:17:47;;;;;;;3.80;1.55;;;;;;;12.84;99.17;100691.16;5241857;28;20043;-81
2021/10/12 10:20:18;;;;;;;7.07;2.60;;;;;;;13.01;98.85;100700.03;5222205;28;20024;-82
2021/10/12 10:22:50;;;;;;;6.70;2.03;;;;;;;13.19;97.46;100693.97;5233965;28;20147;-82
2021/10/12 10:25:34;;;;;;;5.18;1.98;;;;;;;13.24;98.65;100687.63;5222387;28;20017;-82
2021/10/12 10:28:16;;;;;;;3.63;1.30;;;;;;;13.09;98.00;100696.16;5233983;28;20021;-82
2021/10/12 10:30:53;;;;;;;4.35;1.25;;;;;;;12.93;96.65;100697.75;5235036;28;20033;-82
2021/10/12 10:33:27;;;;;;;3.97;1.23;;;;;;;12.93;97.69;100691.66;5221787;28;20031;-82
2021/10/12 10:36:15;;;;;;;18.88;6.57;;;;;;;13.20;95.47;100696.56;5230863;28;20064;-82
2021/10/12 10:38:46;;;;;;;9.25;4.03;;;;;;;12.86;94.08;100689.31;5219497;28;20219;-81
2021/10/12 10:41:16;;;;;;;5.68;2.20;;;;;;;12.74;92.58;100680.22;5221138;28;20025;-82
2021/10/12 10:43:49;;;;;;;5.00;2.00;;;;;;;12.63;95.83;100682.44;5218033;28;20041;-81
2021/10/12 10:46:32;;;;;;;4.18;1.65;;;;;;;12.57;95.33;100684.47;5221213;28;20317;-82
2021/10/12 10:49:15;;;;;;;2.15;0.60;;;;;;;12.48;93.48;100677.81;5235097;28;20025;-80
2021/10/12 10:52:01;;;;;;;2.80;0.63;;;;;;;12.41;93.77;100679.00;5213241;28;20069;-81
2021/10/12 10:54:43;;;;;;;5.10;2.00;;;;;;;12.60;94.78;100677.31;5217883;28;20209;-81
2021/10/12 10:57:20;;;;;;;4.40;1.20;;;;;;;12.49;93.32;100671.66;5255853;28;20025;-81
2021/10/12 11:00:13;;;;;;;2.42;0.80;;;;;;;12.65;94.59;100679.75;5218378;28;20033;-81
2021/10/12 11:02:45;;;;;;;4.15;0.70;;;;;;;12.53;95.10;100675.03;5218500;28;20029;-82
2021/10/12 11:05:36;;;;;;;2.00;0.60;;;;;;;12.35;96.02;100666.16;5215712;28;20278;-82
2021/10/12 11:08:17;;;;;;;2.40;0.80;;;;;;;12.10;94.39;100670.69;5231404;28;20679;-80
2021/10/12 11:10:57;;;;;;;3.63;0.70;;;;;;;11.95;95.46;100671.28;5225387;28;20039;-81
2021/10/12 11:13:31;;;;;;;2.42;0.90;;;;;;;11.83;97.72;100661.31;5208976;28;20025;-81
2021/10/12 11:16:05;;;;;;;4.55;0.75;;;;;;;11.88;99.48;100663.72;5228781;28;20017;-81
2021/10/12 11:18:37;;;;;;;1.55;0.40;;;;;;;11.63;100.00;100665.63;5229057;28;20104;-81
2021/10/12 11:21:09;;;;;;;2.17;0.60;;;;;;;11.72;100.00;100653.03;5212755;28;20012;-81
2021/10/12 11:23:47;;;;;;;2.33;0.85;;;;;;;11.61;100.00;100662.22;5230262;28;20063;-81
2021/10/12 11:26:27;;;;;;;3.00;0.70;;;;;;;11.69;100.00;100663.63;5213264;28;20071;-81
2021/10/12 11:29:02;;;;;;;3.28;0.75;;;;;;;11.50;100.00;100657.34;5214043;28;20516;-81
2021/10/12 11:31:32;;;;;;;2.92;0.80;;;;;;;11.75;100.00;100650.28;5215889;28;20099;-80
2021/10/12 11:34:03;;;;;;;6.43;2.28;;;;;;;11.71;100.00;100650.44;5223419;28;20112;-81
2021/10/12 11:36:33;;;;;;;4.30;1.98;;;;;;;11.91;97.49;100654.00;5227590;28;20032;-81
2021/10/12 11:39:06;;;;;;;4.95;1.77;;;;;;;12.16;94.90;100652.09;5217245;28;20091;-80
2021/10/12 11:41:38;;;;;;;2.00;0.80;;;;;;;12.34;93.92;100643.50;5228870;28;20071;-81
2021/10/12 11:44:17;;;;;;;3.40;1.27;;;;;;;12.52;91.82;100647.97;5226326;28;20060;-82
2021/10/12 11:46:49;;;;;;;3.40;1.10;;;;;;;12.54;90.46;100643.50;5204491;28;20413;-81
2021/10/12 11:49:21;;;;;;;2.03;1.00;;;;;;;12.49;88.08;100642.00;5211272;28;20025;-81